Time;durP1;ratioP1;P1;durP2;ratioP2;P2;SDS_P1;SDS_P2;PMS_P1;PMS_P2;Temp;Humidity;BMP_temperature;BMP_pressure;BME280_temperature;BME280_humidity;BME280_pressure;Samples;Min_cycle;Max_cycle;Signal;HPM_P1;HPM_P2
2022/07/20 00:00:32;;;;;;;;;10.75;9.75;;;;;25.08;38.98;100897.25;5032271;28;45325;-37
2022/07/20 00:03:05;;;;;;;;;12.75;12.00;;;;;25.10;39.01;100894.44;5036133;28;45384;-36
2022/07/20 00:05:31;;;;;;;;;9.50;7.75;;;;;25.10;39.52;100908.66;5026874;28;45483;-36
2022/07/20 00:07:57;;;;;;;;;12.00;11.00;;;;;25.09;39.63;100923.06;5033942;28;46392;-36
2022/07/20 00:13:06;;;;;;;;;11.25;10.50;;;;;25.14;40.28;100923.50;5034391;28;45557;-36
2022/07/20 00:15:31;;;;;;;;;12.25;11.25;;;;;25.14;40.05;100914.59;5031586;28;60263;-37
2022/07/20 00:17:57;;;;;;;;;16.75;12.50;;;;;25.11;40.35;100904.19;5032506;28;74688;-36
2022/07/20 00:20:22;;;;;;;;;14.75;11.75;;;;;25.11;39.86;100909.53;5023620;28;73316;-36
2022/07/20 00:22:47;;;;;;;;;14.75;14.00;;;;;25.09;40.14;100946.28;5033713;28;69477;-36
2022/07/20 00:25:13;;;;;;;;;15.25;11.75;;;;;25.08;40.00;100990.97;5026655;28;71510;-36
2022/07/20 00:27:38;;;;;;;;;12.50;11.75;;;;;25.06;39.83;101019.72;5032424;28;75807;-36
2022/07/20 00:30:04;;;;;;;;;11.75;10.50;;;;;25.05;40.04;101047.47;5025733;28;45433;-36
2022/07/20 00:32:30;;;;;;;;;14.75;12.50;;;;;25.02;39.98;101061.13;5038076;28;45333;-36
2022/07/20 00:34:55;;;;;;;;;13.50;12.00;;;;;25.02;39.90;101072.69;5032935;28;68858;-36
2022/07/20 00:37:20;;;;;;;;;13.75;11.75;;;;;25.00;39.53;101071.09;5033372;28;47136;-36
2022/07/20 00:39:46;;;;;;;;;12.25;11.00;;;;;24.98;40.12;101062.34;5009561;28;66024;-36
2022/07/20 00:42:11;;;;;;;;;14.00;12.25;;;;;24.97;39.96;101050.78;5034895;28;45545;-36
2022/07/20 00:44:36;;;;;;;;;15.75;13.50;;;;;24.96;39.91;101016.94;5025418;28;65576;-36
2022/07/20 00:47:02;;;;;;;;;14.75;12.50;;;;;24.94;40.23;100993.97;5035268;28;47486;-37
2022/07/20 00:49:28;;;;;;;;;17.50;14.00;;;;;24.91;40.29;100981.66;5023076;28;45498;-36
2022/07/20 00:51:53;;;;;;;;;17.25;12.75;;;;;24.91;40.16;100980.81;5034332;28;45406;-36
2022/07/20 00:54:19;;;;;;;;;15.00;13.50;;;;;24.90;40.47;100979.16;5028859;28;58775;-37
2022/07/20 00:56:45;;;;;;;;;18.50;15.00;;;;;24.89;40.46;100956.03;5045595;27;45375;-36
2022/07/20 00:59:10;;;;;;;;;18.50;14.75;;;;;24.86;40.35;100954.47;5028359;28;45358;-35
2022/07/20 01:01:36;;;;;;;;;14.25;12.00;;;;;24.85;40.76;100942.03;5032060;28;45414;-36
2022/07/20 01:04:02;;;;;;;;;12.25;10.00;;;;;24.87;41.35;100944.59;5032133;28;45484;-36
2022/07/20 01:06:28;;;;;;;;;13.50;12.25;;;;;24.89;41.82;100929.25;5030362;28;63413;-36
2022/07/20 01:08:53;;;;;;;;;19.50;16.75;;;;;24.89;41.78;100907.81;5031573;28;45378;-36
2022/07/20 01:11:19;;;;;;;;;17.25;12.75;;;;;24.88;41.64;100906.13;5025915;28;57132;-36
2022/07/20 01:13:45;;;;;;;;;18.50;16.75;;;;;24.87;41.81;100910.63;5038941;28;45311;-35
2022/07/20 01:16:10;;;;;;;;;19.75;18.00;;;;;24.86;42.20;100914.31;5038037;28;45325;-35
2022/07/20 01:18:35;;;;;;;;;18.50;17.50;;;;;24.86;41.91;100916.09;5029491;28;71182;-36
2022/07/20 01:21:06;;;;;;;;;21.25;18.25;;;;;24.83;41.95;100903.84;5044965;28;45352;-36
2022/07/20 01:23:31;;;;;;;;;26.25;21.00;;;;;24.83;41.77;100927.94;5022467;28;45930;-36
2022/07/20 01:25:57;;;;;;;;;23.50;20.00;;;;;24.81;42.04;100909.31;5031750;28;45473;-36
2022/07/20 01:28:23;;;;;;;;;24.25;23.00;;;;;24.80;42.09;100904.94;5029244;28;45265;-35
2022/07/20 01:30:49;;;;;;;;;27.75;24.25;;;;;24.78;42.00;100904.22;5032219;28;45433;-35
2022/07/20 01:33:14;;;;;;;;;23.25;22.50;;;;;24.75;42.50;100893.78;5033310;28;45305;-35
2022/07/20 01:35:40;;;;;;;;;30.25;26.50;;;;;24.75;42.19;100887.56;5030009;28;45468;-35
2022/07/20 01:38:05;;;;;;;;;34.00;29.50;;;;;24.73;42.32;100882.34;5029358;28;67179;-35
2022/07/20 01:40:30;;;;;;;;;27.25;24.75;;;;;24.70;42.68;100889.78;5033823;28;45341;-36
2022/07/20 01:42:56;;;;;;;;;34.75;26.50;;;;;24.69;42.43;100896.13;5036187;28;69574;-36
2022/07/20 01:45:21;;;;;;;;;32.75;27.75;;;;;24.68;42.67;100895.25;5033122;28;65189;-36
2022/07/20 01:47:47;;;;;;;;;38.50;30.00;;;;;24.65;42.76;100882.16;5029032;28;45392;-36
2022/07/20 01:50:12;;;;;;;;;29.00;28.75;;;;;24.61;42.56;100911.00;5029882;28;60889;-35
2022/07/20 01:52:37;;;;;;;;;33.25;29.75;;;;;24.62;43.13;100923.41;5031013;28;62527;-36
2022/07/20 01:55:04;;;;;;;;;29.00;25.75;;;;;24.60;42.59;100937.91;5035314;28;46015;-36
2022/07/20 01:57:29;;;;;;;;;23.50;21.50;;;;;24.61;43.06;100942.25;5032576;28;45692;-36
2022/07/20 01:59:55;;;;;;;;;32.50;25.25;;;;;24.64;43.75;100939.34;5027426;28;45443;-36
2022/07/20 02:02:20;;;;;;;;;24.50;24.00;;;;;24.64;43.86;100932.16;5029037;28;70100;-35
2022/07/20 02:04:45;;;;;;;;;25.75;24.25;;;;;24.64;43.16;100950.03;5030937;28;65645;-35
2022/07/20 02:07:11;;;;;;;;;37.25;30.00;;;;;24.63;43.41;100993.84;5033483;28;64105;-35
2022/07/20 02:09:37;;;;;;;;;30.25;27.50;;;;;24.62;43.45;101025.09;5032090;28;64380;-35
2022/07/20 02:12:02;;;;;;;;;30.50;25.50;;;;;24.60;43.41;101043.09;5036596;28;45532;-35
2022/07/20 02:14:28;;;;;;;;;28.50;24.25;;;;;24.60;43.52;101028.88;5028854;28;45501;-35
2022/07/20 02:16:53;;;;;;;;;30.75;28.25;;;;;24.59;43.28;100995.91;5029443;28;45403;-35
2022/07/20 02:19:18;;;;;;;;;30.75;26.00;;;;;24.57;43.58;100991.66;5032902;28;45839;-36
2022/07/20 02:21:44;;;;;;;;;33.25;28.75;;;;;24.55;43.64;100998.97;5027386;28;71529;-35
2022/07/20 02:24:09;;;;;;;;;39.25;31.75;;;;;24.53;43.18;100982.16;5032683;28;46031;-35
2022/07/20 02:26:35;;;;;;;;;30.00;29.25;;;;;24.52;43.33;100959.88;5035439;28;45352;-35
2022/07/20 02:29:00;;;;;;;;;29.50;26.00;;;;;24.50;43.41;100987.75;5032730;28;45747;-35
2022/07/20 02:31:26;;;;;;;;;29.25;28.00;;;;;24.48;43.01;101020.00;5031950;28;58659;-36
2022/07/20 02:33:52;;;;;;;;;33.25;26.75;;;;;24.48;43.02;101027.16;5028723;28;63296;-36
2022/07/20 02:36:18;;;;;;;;;33.50;29.50;;;;;24.47;43.47;101034.34;5030077;28;45281;-36
2022/07/20 02:38:43;;;;;;;;;28.75;27.75;;;;;24.46;43.66;101029.97;5032863;28;45618;-35
2022/07/20 02:41:09;;;;;;;;;36.00;30.00;;;;;24.45;43.53;101036.28;5034668;28;48167;-35
2022/07/20 02:43:35;;;;;;;;;34.25;30.50;;;;;24.42;43.09;101026.69;5033728;28;46269;-35
2022/07/20 02:46:00;;;;;;;;;29.25;29.00;;;;;24.42;43.20;101026.69;5028410;28;58001;-35
2022/07/20 02:48:25;;;;;;;;;33.50;27.25;;;;;24.40;43.04;101031.31;5027462;28;66794;-35
2022/07/20 02:50:51;;;;;;;;;30.25;24.00;;;;;24.41;43.46;101051.72;5034615;28;45375;-36
2022/07/20 02:53:17;;;;;;;;;30.50;25.50;;;;;24.41;43.53;101051.72;5035836;28;45290;-36
2022/07/20 02:55:43;;;;;;;;;26.25;23.50;;;;;24.47;44.07;101049.53;5026832;28;45435;-35
2022/07/20 02:58:09;;;;;;;;;31.25;23.50;;;;;24.47;43.80;101054.88;5029488;28;45318;-36
2022/07/20 03:00:35;;;;;;;;;28.50;27.25;;;;;24.45;43.81;101069.25;5034125;28;45214;-36
2022/07/20 03:03:01;;;;;;;;;39.75;31.25;;;;;24.43;43.67;101092.63;5031028;28;46364;-35
2022/07/20 03:05:27;;;;;;;;;31.75;26.50;;;;;24.43;43.44;101110.47;5026803;28;45789;-35
2022/07/20 03:07:52;;;;;;;;;34.50;29.25;;;;;24.41;43.41;101123.13;5036780;28;45434;-35
2022/07/20 03:10:18;;;;;;;;;30.75;27.50;;;;;24.39;43.61;101143.78;5028244;28;45455;-35
2022/07/20 03:12:43;;;;;;;;;37.00;30.50;;;;;24.37;43.55;101151.09;5036324;28;63216;-36
2022/07/20 03:15:09;;;;;;;;;30.00;28.00;;;;;24.34;43.36;101133.44;5033567;28;54609;-36
2022/07/20 03:17:46;;;;;;;;;35.50;28.75;;;;;24.34;43.22;101137.94;5020980;28;45671;-35
2022/07/20 03:20:13;;;;;;;;;33.50;26.75;;;;;24.32;43.22;101147.94;5019809;28;45622;-35
2022/07/20 03:22:40;;;;;;;;;34.50;30.00;;;;;24.30;43.37;101157.91;5023653;28;46221;-35
2022/07/20 03:25:06;;;;;;;;;28.75;25.75;;;;;24.28;43.21;101139.28;5033503;28;45797;-35
2022/07/20 03:27:31;;;;;;;;;32.75;27.50;;;;;24.30;43.15;101137.34;5039332;28;45585;-35
2022/07/20 03:29:57;;;;;;;;;33.00;27.00;;;;;24.37;43.36;101143.06;5028582;28;62370;-35
2022/07/20 03:32:22;;;;;;;;;34.50;29.25;;;;;24.43;43.49;101139.91;5033917;28;66604;-35
2022/07/20 03:34:47;;;;;;;;;36.75;29.50;;;;;24.50;43.65;101135.75;5030383;28;45331;-35
2022/07/20 03:37:13;;;;;;;;;36.50;28.00;;;;;24.58;43.60;101129.84;5032501;28;57027;-36
2022/07/20 03:39:38;;;;;;;;;31.00;26.25;;;;;24.64;43.89;101135.53;5030006;28;64970;-35
2022/07/20 03:42:03;;;;;;;;;39.00;30.75;;;;;24.73;43.83;101138.47;5033335;28;63332;-35
2022/07/20 03:44:29;;;;;;;;;32.00;29.25;;;;;24.79;44.13;101140.66;5035053;28;49188;-36
2022/07/20 03:46:54;;;;;;;;;29.75;24.25;;;;;24.84;43.85;101127.72;5033143;28;53632;-35
2022/07/20 03:49:19;;;;;;;;;37.00;28.00;;;;;24.91;43.88;101128.91;5037757;28;56657;-35
2022/07/20 03:51:45;;;;;;;;;1.75;1.75;;;;;24.97;43.77;101144.50;5032914;28;69906;-35
2022/07/20 03:54:10;;;;;;;;;31.50;27.75;;;;;25.05;43.85;101154.56;5026189;28;45456;-35
2022/07/20 03:56:41;;;;;;;;;34.25;26.75;;;;;25.09;43.66;101172.13;5029311;28;64480;-35
2022/07/20 03:59:08;;;;;;;;;28.75;25.50;;;;;25.14;44.22;101171.72;5033887;28;45525;-35
2022/07/20 04:01:33;;;;;;;;;30.25;27.00;;;;;25.16;44.10;101188.50;5026224;28;46246;-35
2022/07/20 04:03:59;;;;;;;;;25.00;22.25;;;;;25.25;43.92;101216.41;5028499;28;45599;-35
2022/07/20 04:06:24;;;;;;;;;30.50;29.75;;;;;25.29;43.92;101232.13;5032334;28;68415;-36
2022/07/20 04:08:49;;;;;;;;;29.00;25.00;;;;;25.36;44.29;101219.09;5025683;28;63208;-36
2022/07/20 04:11:15;;;;;;;;;34.50;29.75;;;;;25.39;44.12;101203.59;5036541;28;65499;-36
2022/07/20 04:13:40;;;;;;;;;31.00;28.00;;;;;25.43;44.31;101180.09;5038008;28;65186;-36
2022/07/20 04:16:05;;;;;;;;;40.00;32.25;;;;;25.48;44.34;101177.88;5038324;28;66913;-36
2022/07/20 04:18:31;;;;;;;;;29.00;28.75;;;;;25.52;44.56;101173.13;5038790;28;45460;-36
2022/07/20 04:20:57;;;;;;;;;34.00;29.25;;;;;25.55;44.43;101165.66;5038363;28;45988;-35
2022/07/20 04:23:22;;;;;;;;;32.00;30.00;;;;;25.60;44.74;101167.09;5026070;28;69871;-36
2022/07/20 04:25:47;;;;;;;;;26.50;21.75;;;;;25.62;44.62;101151.72;5034820;28;50390;-35
2022/07/20 04:28:13;;;;;;;;;32.75;26.75;;;;;25.65;44.59;101133.56;5037489;28;45257;-35
2022/07/20 04:30:38;;;;;;;;;30.50;26.50;;;;;25.70;44.56;101122.47;5026184;28;73758;-35
2022/07/20 04:33:03;;;;;;;;;28.50;23.50;;;;;25.72;44.64;101104.41;5028997;28;45435;-35
2022/07/20 04:35:29;;;;;;;;;24.75;21.25;;;;;25.75;44.44;101121.09;5030440;28;45505;-36
2022/07/20 04:37:54;;;;;;;;;25.75;23.00;;;;;25.79;44.63;101112.78;5034462;28;61126;-36
2022/07/20 04:40:20;;;;;;;;;29.25;25.50;;;;;25.81;44.93;101119.69;5034478;28;63518;-35
2022/07/20 04:42:45;;;;;;;;;20.75;19.75;;;;;25.84;44.92;101107.88;5029114;28;68706;-36
2022/07/20 04:45:10;;;;;;;;;21.75;19.50;;;;;25.85;44.87;101101.53;5037011;28;50111;-35
2022/07/20 04:47:36;;;;;;;;;25.50;21.25;;;;;25.89;44.75;101089.56;5031214;28;45384;-36
2022/07/20 04:50:02;;;;;;;;;21.00;16.75;;;;;25.90;44.89;101065.28;5027557;28;69442;-36
2022/07/20 04:52:28;;;;;;;;;22.25;18.50;;;;;25.93;44.85;101075.78;5036239;28;45909;-35
2022/07/20 04:54:53;;;;;;;;;21.00;17.25;;;;;25.96;44.66;101088.09;5024515;28;66030;-35
2022/07/20 04:57:18;;;;;;;;;17.00;14.75;;;;;25.98;45.03;101096.84;5018476;28;45483;-36
2022/07/20 04:59:44;;;;;;;;;19.25;16.50;;;;;25.99;45.12;101106.56;5031710;28;64564;-35
2022/07/20 05:02:09;;;;;;;;;18.25;17.00;;;;;26.01;44.90;101128.78;5033994;28;65816;-36
2022/07/20 05:04:34;;;;;;;;;17.25;16.25;;;;;26.02;44.82;101162.63;5030234;28;51074;-36
2022/07/20 05:07:00;;;;;;;;;22.25;22.00;;;;;26.05;47.63;101185.69;5030872;28;50457;-39
2022/07/20 05:09:26;;;;;;;;;20.50;18.50;;;;;25.89;46.61;101181.59;5032450;28;46047;-39
2022/07/20 05:11:51;;;;;;;;;26.75;20.25;;;;;25.71;47.43;101189.34;5030721;28;45531;-40
2022/07/20 05:14:17;;;;;;;;;23.75;22.00;;;;;25.58;47.45;101208.25;5030468;28;45452;-41
2022/07/20 05:16:42;;;;;;;;;29.00;22.25;;;;;25.50;47.28;101175.91;5027215;28;57149;-41
2022/07/20 05:19:08;;;;;;;;;21.00;19.50;;;;;25.44;47.46;101154.13;5033784;28;47057;-40
2022/07/20 05:21:34;;;;;;;;;23.75;22.25;;;;;25.34;48.81;101152.22;5034289;28;45934;-40
2022/07/20 05:24:00;;;;;;;;;21.75;21.00;;;;;25.15;48.30;101173.44;5027891;28;45239;-40
2022/07/20 05:26:25;;;;;;;;;27.00;21.25;;;;;25.07;49.32;101141.91;5026475;28;45505;-40
2022/07/20 05:28:51;;;;;;;;;23.50;21.50;;;;;25.06;49.46;101101.88;5022358;28;46119;-40
2022/07/20 05:31:16;;;;;;;;;24.25;22.50;;;;;24.99;50.26;101072.94;5030505;28;45555;-40
2022/07/20 05:33:42;;;;;;;;;29.75;26.00;;;;;24.96;49.92;101085.72;5031467;28;45782;-39
2022/07/20 05:36:08;;;;;;;;;31.25;27.00;;;;;24.94;50.38;101043.00;5029489;28;45572;-40
2022/07/20 05:38:34;;;;;;;;;27.25;24.75;;;;;24.92;49.86;101034.25;5026360;28;46121;-41
2022/07/20 05:40:59;;;;;;;;;22.00;19.25;;;;;24.83;50.77;101076.00;5023572;28;45362;-42
2022/07/20 05:43:25;;;;;;;;;27.00;27.00;;;;;24.79;50.99;101085.28;5034022;28;65573;-41
2022/07/20 05:45:50;;;;;;;;;28.50;25.75;;;;;24.77;50.83;101110.47;5027594;28;45447;-45
2022/07/20 05:48:16;;;;;;;;;21.00;19.50;;;;;24.76;50.37;101109.63;5025426;28;46948;-42
2022/07/20 05:50:42;;;;;;;;;24.50;23.75;;;;;24.74;50.21;101124.94;5028848;28;45505;-44
2022/07/20 05:53:09;;;;;;;;;24.25;21.50;;;;;24.72;51.20;101124.22;5028100;28;45495;-40
2022/07/20 05:55:35;;;;;;;;;20.75;19.75;;;;;24.68;50.41;101127.25;5033763;28;45435;-46
2022/07/20 05:58:01;;;;;;;;;22.75;17.25;;;;;24.67;50.89;101145.16;5032813;28;46358;-42
2022/07/20 06:00:27;;;;;;;;;22.00;16.75;;;;;24.66;50.26;101154.16;5030425;28;45545;-40
2022/07/20 06:02:52;;;;;;;;;21.75;19.25;;;;;24.66;50.23;101154.16;5030812;28;45361;-41
2022/07/20 06:05:18;;;;;;;;;19.25;18.00;;;;;24.65;50.15;101157.81;5032532;28;45510;-40
2022/07/20 06:07:43;;;;;;;;;22.00;18.75;;;;;24.64;50.00;101143.56;5035558;28;46226;-40
2022/07/20 06:10:08;;;;;;;;;24.25;20.50;;;;;24.63;50.12;101127.66;5031949;28;72620;-40
2022/07/20 06:12:34;;;;;;;;;23.25;21.25;;;;;24.60;49.95;101118.03;5032682;28;47138;-40
2022/07/20 06:14:59;;;;;;;;;28.00;23.50;;;;;24.60;50.13;101126.06;5030865;28;45617;-42
2022/07/20 06:17:35;;;;;;;;;22.50;21.25;;;;;24.55;49.90;101124.72;5035239;28;57159;-41
2022/07/20 06:20:13;;;;;;;;;24.00;21.00;;;;;24.55;49.81;101138.09;5028829;28;45392;-43
2022/07/20 06:22:39;;;;;;;;;27.75;19.50;;;;;24.53;50.05;101148.06;5029850;28;45208;-42
2022/07/20 06:25:06;;;;;;;;;18.75;16.50;;;;;24.51;49.59;101166.06;5026892;28;45575;-44
2022/07/20 06:27:32;;;;;;;;;21.25;17.25;;;;;24.49;49.71;101182.22;5035881;28;47328;-42
2022/07/20 06:29:58;;;;;;;;;24.00;17.75;;;;;24.49;49.67;101209.00;5029749;28;45632;-40
2022/07/20 06:32:24;;;;;;;;;25.75;21.00;;;;;24.46;49.04;101217.25;5035839;28;45600;-40
2022/07/20 06:34:50;;;;;;;;;23.25;19.00;;;;;24.47;49.94;101234.16;5030436;28;45301;-37
2022/07/20 06:37:15;;;;;;;;;22.50;18.75;;;;;24.49;49.43;101249.13;5034513;28;45875;-38
2022/07/20 06:39:40;;;;;;;;;19.00;17.00;;;;;24.48;49.34;101238.53;5022583;28;45423;-38
2022/07/20 06:42:06;;;;;;;;;24.50;20.00;;;;;24.42;49.82;101240.72;5033570;28;65738;-38
2022/07/20 06:44:31;;;;;;;;;23.00;20.00;;;;;24.39;50.32;101226.72;5032355;28;68128;-39
2022/07/20 06:46:57;;;;;;;;;21.25;19.00;;;;;24.36;50.52;101225.13;5027669;28;71381;-38
2022/07/20 06:49:22;;;;;;;;;20.75;18.25;;;;;24.37;50.78;101239.38;5025789;28;45767;-39
2022/07/20 06:51:48;;;;;;;;;21.00;18.00;;;;;24.37;50.13;101229.50;5030376;28;54847;-39
2022/07/20 06:54:13;;;;;;;;;21.00;16.75;;;;;24.38;50.55;101212.50;5033718;28;45519;-38
2022/07/20 06:56:38;;;;;;;;;27.25;19.75;;;;;24.36;50.19;101211.75;5033305;28;47978;-39
2022/07/20 06:59:04;;;;;;;;;24.00;20.25;;;;;24.39;50.49;101208.00;5029822;28;71347;-39
2022/07/20 07:01:29;;;;;;;;;21.50;18.25;;;;;24.43;50.27;101196.06;5039214;28;48111;-39
2022/07/20 07:03:54;;;;;;;;;22.25;18.25;;;;;24.40;50.21;101191.84;5032267;28;50712;-39
2022/07/20 07:06:21;;;;;;;;;32.25;22.00;;;;;24.39;50.27;101183.94;5042445;28;45496;-42
2022/07/20 07:08:47;;;;;;;;;23.00;20.25;;;;;24.37;51.81;101184.03;5041715;28;45849;-40
2022/07/20 07:11:12;;;;;;;;;19.25;17.00;;;;;24.34;50.80;101189.63;5036819;28;56067;-40
2022/07/20 07:13:38;;;;;;;;;21.75;19.00;;;;;24.38;50.86;101196.47;5041343;28;45626;-39
2022/07/20 07:16:03;;;;;;;;;20.75;18.25;;;;;24.44;51.51;101189.75;5042161;28;45889;-38
2022/07/20 07:18:29;;;;;;;;;21.00;18.75;;;;;24.39;51.97;101183.94;5037945;28;45364;-38
2022/07/20 07:20:54;;;;;;;;;18.00;15.75;;;;;24.33;52.20;101192.41;5037069;28;45356;-39
2022/07/20 07:23:19;;;;;;;;;18.50;15.25;;;;;24.29;53.66;101204.34;5034667;28;45473;-39
2022/07/20 07:25:45;;;;;;;;;17.25;16.25;;;;;24.19;53.61;101207.72;5033512;28;65658;-39
2022/07/20 07:28:10;;;;;;;;;17.25;15.00;;;;;24.11;52.80;101206.59;5038225;28;64795;-39
2022/07/20 07:30:35;;;;;;;;;19.50;16.25;;;;;24.10;53.16;101194.19;5035420;28;45338;-39
2022/07/20 07:33:01;;;;;;;;;21.25;17.50;;;;;24.16;52.95;101167.00;5042484;28;45467;-38
2022/07/20 07:35:26;;;;;;;;;19.00;15.50;;;;;24.17;53.58;101182.06;5034306;28;66554;-39
2022/07/20 07:37:51;;;;;;;;;18.50;15.75;;;;;24.17;53.14;101216.81;5034311;28;69544;-38
2022/07/20 07:40:17;;;;;;;;;20.25;17.00;;;;;24.21;53.78;101216.47;5038639;28;51688;-38
2022/07/20 07:42:42;;;;;;;;;21.75;17.75;;;;;24.22;53.60;101195.91;5035711;28;61667;-38
2022/07/20 07:45:08;;;;;;;;;18.75;17.00;;;;;24.23;53.01;101201.16;5035715;28;65664;-39
2022/07/20 07:47:34;;;;;;;;;20.50;16.00;;;;;24.24;52.75;101226.94;5035540;28;45720;-38
2022/07/20 07:49:59;;;;;;;;;22.25;18.75;;;;;24.26;52.87;101234.84;5033592;28;45562;-40
2022/07/20 07:52:25;;;;;;;;;23.50;17.00;;;;;24.26;52.83;101230.34;5039561;28;45635;-40
2022/07/20 07:54:50;;;;;;;;;19.50;17.00;;;;;24.26;52.76;101241.03;5035370;28;46024;-39
2022/07/20 07:57:15;;;;;;;;;19.25;19.00;;;;;24.25;52.93;101260.72;5042153;28;70302;-43
2022/07/20 07:59:42;;;;;;;;;23.50;18.00;;;;;24.23;52.58;101251.13;5038177;28;45381;-39
2022/07/20 08:02:07;;;;;;;;;26.25;20.25;;;;;24.18;52.23;101248.78;5035199;28;45466;-39
2022/07/20 08:04:32;;;;;;;;;21.25;19.50;;;;;24.19;52.58;101253.19;5031143;28;46056;-38
2022/07/20 08:06:58;;;;;;;;;22.75;21.00;;;;;24.18;53.19;101254.16;5037546;28;62861;-39
2022/07/20 08:09:23;;;;;;;;;22.25;20.25;;;;;24.18;52.46;101253.31;5042047;28;45473;-39
2022/07/20 08:11:48;;;;;;;;;25.75;20.00;;;;;24.18;52.78;101242.59;5033285;28;57926;-39
2022/07/20 08:14:14;;;;;;;;;22.75;20.50;;;;;24.18;53.09;101251.47;5028256;28;45777;-39
2022/07/20 08:16:40;;;;;;;;;23.25;21.00;;;;;24.19;53.11;101258.53;5029978;28;45537;-39
2022/07/20 08:19:05;;;;;;;;;21.75;19.50;;;;;24.23;52.98;101261.81;5028139;28;59776;-39
2022/07/20 08:21:30;;;;;;;;;21.50;18.75;;;;;24.26;52.87;101256.25;5034399;28;61038;-38
2022/07/20 08:23:56;;;;;;;;;21.25;18.50;;;;;24.24;52.72;101255.50;5031822;28;71156;-39
2022/07/20 08:26:21;;;;;;;;;22.00;21.75;;;;;24.23;53.09;101270.69;5034440;28;45509;-39
2022/07/20 08:28:47;;;;;;;;;22.25;19.50;;;;;24.21;52.68;101274.47;5038100;28;45954;-40
2022/07/20 08:31:12;;;;;;;;;23.00;20.50;;;;;24.20;52.44;101270.06;5036128;28;45275;-39
2022/07/20 08:33:37;;;;;;;;;23.25;22.75;;;;;24.17;52.69;101257.81;5029602;28;64475;-39
2022/07/20 08:36:03;;;;;;;;;24.00;21.25;;;;;24.15;52.66;101243.72;5033988;28;45384;-41
2022/07/20 08:38:29;;;;;;;;;24.00;19.75;;;;;24.13;52.57;101261.66;5032422;28;45460;-39
2022/07/20 08:40:55;;;;;;;;;22.50;20.50;;;;;24.11;52.44;101276.97;5031354;28;45324;-40
2022/07/20 08:43:20;;;;;;;;;26.00;20.75;;;;;24.11;52.67;101279.66;5030181;28;45356;-38
2022/07/20 08:45:47;;;;;;;;;21.00;20.25;;;;;24.11;52.50;101273.47;5034272;28;48026;-39
2022/07/20 08:48:18;;;;;;;;;22.50;16.75;;;;;24.11;52.49;101263.59;5030358;28;45430;-41
2022/07/20 08:50:43;;;;;;;;;26.25;22.50;;;;;24.11;52.74;101282.31;5031881;28;45972;-41
2022/07/20 08:53:09;;;;;;;;;22.75;19.00;;;;;24.10;52.54;101280.63;5034367;28;45426;-38
2022/07/20 08:55:34;;;;;;;;;18.50;18.50;;;;;24.14;52.21;101276.75;5034118;28;45378;-38
2022/07/20 08:57:59;;;;;;;;;25.00;21.50;;;;;24.20;51.92;101276.28;5034636;28;45641;-38
2022/07/20 09:00:25;;;;;;;;;23.00;20.25;;;;;24.31;51.87;101274.59;5032758;28;45368;-38
2022/07/20 09:02:55;;;;;;;;;18.50;17.25;;;;;24.39;51.89;101277.56;5034420;28;45984;-39
2022/07/20 09:05:23;;;;;;;;;17.00;17.00;;;;;24.49;51.62;101273.22;5035257;28;45299;-38
2022/07/20 09:07:53;;;;;;;;;19.00;17.00;;;;;24.56;51.51;101269.13;5035739;28;45458;-39
2022/07/20 09:10:30;;;;;;;;;20.75;18.50;;;;;24.65;51.35;101278.25;5034724;28;45478;-40
2022/07/20 09:12:58;;;;;;;;;20.00;15.00;;;;;24.72;51.30;101281.28;5029914;28;45936;-39
2022/07/20 09:15:38;;;;;;;;;23.00;18.50;;;;;24.77;50.94;101271.94;5026434;28;45244;-39
2022/07/20 09:18:12;;;;;;;;;18.75;13.75;;;;;24.86;50.74;101265.00;5038663;28;45286;-38
2022/07/20 09:20:40;;;;;;;;;20.75;18.00;;;;;24.90;50.62;101247.72;5032065;28;45566;-37
2022/07/20 09:23:12;;;;;;;;;21.00;17.00;;;;;24.98;50.36;101242.63;5030886;28;46376;-38
2022/07/20 09:25:49;;;;;;;;;21.50;17.50;;;;;25.05;50.58;101255.50;5032282;28;45463;-38
2022/07/20 09:28:14;;;;;;;;;23.25;18.00;;;;;25.10;50.28;101255.97;5034016;28;45728;-39
2022/07/20 09:30:40;;;;;;;;;19.25;18.00;;;;;25.14;50.23;101249.41;5031221;28;67207;-39
2022/07/20 09:33:05;;;;;;;;;18.00;16.00;;;;;25.18;50.10;101254.41;5028555;28;46978;-38
2022/07/20 09:35:33;;;;;;;;;15.75;13.75;;;;;25.23;50.17;101259.34;5025514;28;45383;-38
2022/07/20 09:38:01;;;;;;;;;15.00;14.50;;;;;25.27;49.78;101270.72;5032070;28;45521;-38
2022/07/20 09:40:27;;;;;;;;;18.75;17.50;;;;;25.30;50.03;101254.41;5033963;28;45457;-37
2022/07/20 09:42:52;;;;;;;;;18.25;16.25;;;;;25.35;49.50;101261.06;5038368;28;46249;-36
2022/07/20 09:45:29;;;;;;;;;17.75;14.25;;;;;25.39;49.79;101264.34;5026439;28;45603;-37
2022/07/20 09:48:04;;;;;;;;;15.00;14.00;;;;;25.43;49.46;101276.56;5029352;28;45387;-38
2022/07/20 09:50:31;;;;;;;;;16.75;14.25;;;;;25.45;49.48;101277.28;5032008;28;45482;-38
2022/07/20 09:52:57;;;;;;;;;15.75;13.50;;;;;25.48;49.44;101282.38;5033911;28;45431;-38
2022/07/20 09:55:22;;;;;;;;;16.50;13.25;;;;;25.51;49.35;101286.63;5031635;28;45757;-38
2022/07/20 09:57:50;;;;;;;;;17.00;14.50;;;;;25.53;49.21;101295.41;5035184;28;45448;-38
2022/07/20 10:00:15;;;;;;;;;17.75;14.25;;;;;25.56;49.18;101296.00;5032214;28;45582;-38
2022/07/20 10:02:41;;;;;;;;;14.25;14.25;;;;;25.58;48.99;101298.56;5031616;28;45627;-39
2022/07/20 10:05:07;;;;;;;;;16.00;13.25;;;;;25.61;49.05;101302.84;5048510;28;73348;-38
2022/07/20 10:07:32;;;;;;;;;14.25;11.50;;;;;25.62;48.67;101301.84;5033748;28;45621;-37
2022/07/20 10:09:58;;;;;;;;;16.25;13.75;;;;;25.64;48.83;101297.19;5034760;28;67950;-37
2022/07/20 10:12:23;;;;;;;;;15.75;14.00;;;;;25.68;49.15;101306.72;5034942;28;46270;-38
2022/07/20 10:14:51;;;;;;;;;15.25;14.00;;;;;25.69;48.74;101300.34;5027150;28;62648;-38
2022/07/20 10:17:17;;;;;;;;;18.50;14.00;;;;;25.71;48.66;101291.22;5034590;28;45530;-38
2022/07/20 10:19:47;;;;;;;;;13.75;11.00;;;;;25.73;48.61;101291.94;5031924;28;45357;-38
2022/07/20 10:22:13;;;;;;;;;17.00;13.75;;;;;25.75;48.76;101281.09;5020010;28;45946;-37
2022/07/20 10:24:42;;;;;;;;;15.75;11.75;;;;;25.77;48.58;101289.84;5029468;27;45526;-37
2022/07/20 10:27:08;;;;;;;;;14.50;12.50;;;;;25.80;48.47;101303.03;5037277;28;45564;-37
2022/07/20 10:29:50;;;;;;;;;15.00;13.33;;;;;25.82;48.41;101305.56;5031462;28;45475;-38
2022/07/20 10:32:21;;;;;;;;;15.50;12.25;;;;;25.83;48.35;101307.25;5023784;28;45374;-38
2022/07/20 10:34:51;;;;;;;;;11.75;9.25;;;;;25.84;48.13;101303.63;5023185;28;46248;-38
2022/07/20 10:37:30;;;;;;;;;17.00;11.75;;;;;25.87;48.46;101304.22;5024701;28;45347;-38
2022/07/20 10:40:05;;;;;;;;;17.25;11.50;;;;;25.87;48.15;101292.63;5033066;28;45564;-37
2022/07/20 10:42:34;;;;;;;;;12.50;11.50;;;;;25.89;48.13;101283.47;5034555;28;46075;-38
2022/07/20 10:45:17;;;;;;;;;15.00;10.00;;;;;25.90;47.98;101281.63;5026648;28;45412;-38
2022/07/20 10:47:42;;;;;;;;;12.00;11.50;;;;;25.92;47.99;101285.03;5029032;28;45463;-37
2022/07/20 10:50:08;;;;;;;;;13.75;13.25;;;;;25.93;48.27;101287.63;5027663;28;45423;-38
2022/07/20 10:52:34;;;;;;;;;10.00;9.25;;;;;25.94;48.24;101289.34;5029540;28;46863;-37
2022/07/20 10:55:00;;;;;;;;;12.75;11.00;;;;;25.97;47.65;101287.38;5027422;28;45496;-38
2022/07/20 10:57:26;;;;;;;;;14.25;10.50;;;;;25.97;47.75;101279.34;5026950;28;45349;-39
2022/07/20 11:00:07;;;;;;;;;11.00;10.75;;;;;25.99;47.82;101288.94;5032802;28;45416;-39
2022/07/20 11:02:33;;;;;;;;;12.25;10.00;;;;;26.00;47.92;101290.66;5027915;28;46170;-38
2022/07/20 11:04:59;;;;;;;;;12.00;12.00;;;;;26.01;47.52;101308.47;5009487;28;45402;-38
2022/07/20 11:07:28;;;;;;;;;17.00;11.75;;;;;26.03;48.06;101309.19;5034641;28;45412;-49